Terminal Aerodrome Forecast
Issued by NWS Des Moines, IA

Home | Current Version | Previous Version | Text Only | Print | Product List | Glossary On
Versions: 1 2 3 4 5 6 7 8 9 10 11 12 13 14 15
000
FTUS43 KDMX 130534
TAFDSM
TAF
KDSM 130534Z 1306/1406 19008KT P6SM FEW250
     FM131200 26012G18KT P6SM SCT080
     FM131500 31016G27KT P6SM BKN040
     FM131800 32024G37KT P6SM BKN030
     FM132300 33021G32KT P6SM BKN028
     FM140200 33014G28KT P6SM BKN045=

USA.gov is the U.S. government's official web portal to all federal, state and local government web resources and services.